Time;durP1;ratioP1;P1;durP2;ratioP2;P2;SDS_P1;SDS_P2;PMS_P1;PMS_P2;Temp;Humidity;BMP_temperature;BMP_pressure;BME280_temperature;BME280_humidity;BME280_pressure;Samples;Min_cycle;Max_cycle;Signal;HPM_P1;HPM_P2
2022/06/29 00:01:57;;;;;;;4.03;2.30;;;16.70;99.90;;;;;;5093173;28;20032;-65
2022/06/29 00:04:23;;;;;;;4.10;2.55;;;16.70;99.90;;;;;;5093252;28;20058;-66
2022/06/29 00:06:48;;;;;;;4.30;2.83;;;16.60;99.90;;;;;;5093287;28;20016;-66
2022/06/29 00:09:14;;;;;;;2.85;2.58;;;16.60;99.90;;;;;;5093218;28;20069;-65
2022/06/29 00:11:40;;;;;;;4.13;2.70;;;16.50;99.90;;;;;;5093335;28;20024;-66
2022/06/29 00:14:06;;;;;;;2.83;2.55;;;;;;;;;;5093503;28;20351;-65
2022/06/29 00:16:31;;;;;;;2.95;2.50;;;16.30;99.90;;;;;;5093436;28;20103;-65
2022/06/29 00:18:57;;;;;;;3.95;2.38;;;16.30;99.90;;;;;;5093389;28;20169;-66
2022/06/29 00:21:23;;;;;;;4.90;2.72;;;16.20;99.90;;;;;;5093401;28;20108;-66
2022/06/29 00:23:49;;;;;;;6.13;2.75;;;16.20;99.90;;;;;;5093148;28;20161;-66
2022/06/29 00:26:15;;;;;;;5.03;2.50;;;16.20;99.90;;;;;;5093269;28;20029;-66
2022/06/29 00:28:40;;;;;;;4.88;2.33;;;16.10;99.90;;;;;;5093342;28;20476;-66
2022/06/29 00:31:06;;;;;;;2.97;2.30;;;16.00;99.90;;;;;;5093337;28;20538;-66
2022/06/29 00:33:31;;;;;;;6.13;2.80;;;15.90;99.90;;;;;;5093038;28;20031;-66
2022/06/29 00:35:57;;;;;;;2.67;2.47;;;15.80;99.90;;;;;;5093016;28;20024;-66
2022/06/29 00:38:23;;;;;;;4.25;2.47;;;15.70;99.90;;;;;;5093010;28;20561;-66
2022/06/29 00:40:48;;;;;;;3.08;2.78;;;15.70;99.90;;;;;;5093055;28;20031;-66
2022/06/29 00:43:14;;;;;;;3.10;2.80;;;15.60;99.90;;;;;;5093215;28;20440;-66
2022/06/29 00:45:39;;;;;;;4.55;2.83;;;15.50;99.90;;;;;;5092942;28;20074;-66
2022/06/29 00:48:05;;;;;;;5.75;2.83;;;15.50;99.90;;;;;;5093149;28;20078;-65
2022/06/29 00:50:32;;;;;;;3.20;2.75;;;15.40;99.90;;;;;;5093128;28;20423;-66
2022/06/29 00:53:03;;;;;;;4.43;2.63;;;15.40;99.90;;;;;;5093119;28;20464;-66
2022/06/29 00:55:32;;;;;;;5.22;2.88;;;15.30;99.90;;;;;;5093098;28;20028;-65
2022/06/29 00:58:03;;;;;;;3.60;3.30;;;15.30;99.90;;;;;;5093069;28;20035;-65
2022/06/29 01:00:29;;;;;;;3.03;2.55;;;15.20;99.90;;;;;;5093049;28;20470;-65
2022/06/29 01:02:57;;;;;;;3.90;2.58;;;15.10;99.90;;;;;;5091633;28;20020;-65
2022/06/29 01:05:22;;;;;;;3.80;2.65;;;15.10;99.90;;;;;;5092548;28;20533;-65
2022/06/29 01:07:49;;;;;;;6.35;2.85;;;15.00;99.90;;;;;;5091551;28;20024;-65
2022/06/29 01:10:15;;;;;;;3.15;2.85;;;14.90;99.90;;;;;;5092959;28;20035;-65
2022/06/29 01:12:40;;;;;;;5.75;2.88;;;15.00;99.90;;;;;;5094215;28;20474;-65
2022/06/29 01:15:06;;;;;;;4.07;3.20;;;14.90;99.90;;;;;;5096586;28;20475;-65
2022/06/29 01:17:32;;;;;;;8.07;3.40;;;14.90;99.90;;;;;;5096567;28;20597;-65
2022/06/29 01:19:57;;;;;;;3.80;3.40;;;14.90;99.90;;;;;;5096556;28;20052;-65
2022/06/29 01:22:26;;;;;;;7.72;3.58;;;14.90;99.90;;;;;;5096463;28;20471;-65
2022/06/29 01:24:52;;;;;;;6.20;3.13;;;14.90;99.90;;;;;;5096096;28;20035;-66
2022/06/29 01:27:19;;;;;;;3.42;3.05;;;15.00;99.90;;;;;;5096371;28;20089;-65
2022/06/29 01:29:45;;;;;;;5.05;3.20;;;15.00;99.90;;;;;;5096323;28;20486;-65
2022/06/29 01:32:11;;;;;;;3.67;3.20;;;15.10;99.90;;;;;;5096136;28;20027;-65
2022/06/29 01:34:37;;;;;;;5.38;2.88;;;15.10;99.90;;;;;;5096222;28;20442;-65
2022/06/29 01:37:04;;;;;;;3.50;3.20;;;15.20;99.90;;;;;;5096256;28;20052;-66
2022/06/29 01:39:30;;;;;;;4.65;3.17;;;15.30;99.90;;;;;;5096143;28;20501;-65
2022/06/29 01:41:56;;;;;;;3.65;2.72;;;15.40;99.90;;;;;;5095822;28;20098;-65
2022/06/29 01:44:22;;;;;;;5.95;3.22;;;15.40;99.90;;;;;;5096073;28;20449;-65
2022/06/29 01:46:48;;;;;;;4.72;3.30;;;15.50;99.90;;;;;;5095736;28;20024;-65
2022/06/29 01:49:14;;;;;;;3.72;3.00;;;15.50;99.90;;;;;;5095796;28;20095;-66
2022/06/29 01:51:40;;;;;;;5.38;3.40;;;15.60;99.90;;;;;;5095893;28;20024;-65
2022/06/29 01:54:06;;;;;;;4.90;3.20;;;15.70;99.90;;;;;;5095613;28;20109;-65
2022/06/29 01:56:31;;;;;;;5.28;3.05;;;15.70;99.90;;;;;;5095861;28;20039;-65
2022/06/29 01:58:57;;;;;;;4.35;3.38;;;15.70;99.90;;;;;;5095466;28;20497;-65
2022/06/29 02:01:22;;;;;;;6.70;3.17;;;15.80;99.90;;;;;;5095716;28;20081;-65
2022/06/29 02:03:48;;;;;;;6.03;3.53;;;15.80;99.90;;;;;;5095677;28;20389;-65
2022/06/29 02:06:14;;;;;;;5.13;3.22;;;15.80;99.90;;;;;;5095158;28;20040;-65
2022/06/29 02:08:39;;;;;;;4.22;3.30;;;15.90;99.90;;;;;;5095436;28;20382;-65
2022/06/29 02:11:05;;;;;;;4.78;3.35;;;15.90;99.90;;;;;;5095263;28;20108;-65
2022/06/29 02:13:31;;;;;;;4.40;2.97;;;15.90;99.90;;;;;;5095510;28;20024;-66
2022/06/29 02:15:57;;;;;;;4.65;3.35;;;16.00;99.90;;;;;;5095448;28;20078;-65
2022/06/29 02:18:23;;;;;;;5.43;3.28;;;16.10;99.90;;;;;;5095398;28;20040;-65
2022/06/29 02:20:48;;;;;;;4.80;2.80;;;16.10;99.90;;;;;;5095350;28;20028;-65
2022/06/29 02:23:14;;;;;;;6.28;2.83;;;16.20;99.90;;;;;;5095276;28;20020;-65
2022/06/29 02:25:39;;;;;;;6.13;3.13;;;16.20;99.90;;;;;;5094973;28;20024;-66
2022/06/29 02:28:05;;;;;;;4.72;2.85;;;16.20;99.90;;;;;;5094894;28;20072;-65
2022/06/29 02:36:03;;;;;;;6.28;3.15;;;16.30;99.90;;;;;;5094637;28;20024;-65
2022/06/29 02:38:29;;;;;;;5.13;2.90;;;16.30;99.90;;;;;;5094714;28;20032;-65
2022/06/29 02:40:54;;;;;;;4.38;2.72;;;16.40;99.90;;;;;;5094737;28;20032;-65
2022/06/29 02:43:20;;;;;;;5.30;2.90;;;16.40;99.90;;;;;;5094901;28;20485;-66
2022/06/29 02:45:45;;;;;;;4.78;3.25;;;16.40;99.90;;;;;;5094519;28;20364;-66
2022/06/29 02:48:11;;;;;;;5.28;3.10;;;16.40;99.90;;;;;;5094578;28;20086;-66
2022/06/29 02:50:37;;;;;;;4.28;3.08;;;16.40;99.90;;;;;;5094492;28;20032;-66
2022/06/29 02:53:02;;;;;;;5.75;3.35;;;16.50;99.90;;;;;;5094732;28;20020;-66
2022/06/29 02:55:28;;;;;;;7.45;3.53;;;16.40;99.90;;;;;;5094637;28;20119;-66
2022/06/29 02:57:54;;;;;;;5.25;3.00;;;16.40;99.90;;;;;;5094661;28;20138;-66
2022/06/29 03:00:19;;;;;;;4.03;3.08;;;16.50;99.90;;;;;;5094547;28;20024;-65
2022/06/29 03:02:45;;;;;;;4.03;3.10;;;16.50;99.90;;;;;;5094380;28;20123;-65
2022/06/29 03:05:11;;;;;;;3.47;2.80;;;16.40;99.90;;;;;;5094062;28;20048;-66
2022/06/29 03:07:36;;;;;;;3.85;3.00;;;16.40;99.90;;;;;;5094476;28;20024;-65
2022/06/29 03:10:03;;;;;;;3.88;3.03;;;16.40;99.90;;;;;;5092863;28;20103;-66
2022/06/29 03:12:29;;;;;;;4.88;2.72;;;16.40;99.90;;;;;;5094352;28;20470;-65
2022/06/29 03:14:54;;;;;;;3.55;2.63;;;16.40;99.90;;;;;;5094330;28;20032;-65
2022/06/29 03:17:20;;;;;;;4.47;2.60;;;16.40;99.90;;;;;;5094051;28;20035;-65
2022/06/29 03:19:45;;;;;;;4.75;2.63;;;16.30;99.90;;;;;;5092998;28;20103;-65
2022/06/29 03:22:11;;;;;;;3.60;2.85;;;16.20;99.90;;;;;;5094064;28;20036;-65
2022/06/29 03:24:36;;;;;;;3.28;2.60;;;16.10;99.90;;;;;;5092511;28;20043;-65
2022/06/29 03:27:02;;;;;;;4.38;2.50;;;16.00;99.90;;;;;;5092585;28;20024;-65
2022/06/29 03:29:28;;;;;;;4.72;3.15;;;15.90;99.90;;;;;;5094035;28;20054;-65
2022/06/29 03:31:53;;;;;;;5.22;3.15;;;15.80;99.90;;;;;;5094009;28;20032;-65
2022/06/29 03:34:19;;;;;;;5.63;3.35;;;15.80;99.90;;;;;;5093977;28;20020;-65
2022/06/29 03:36:44;;;;;;;5.10;3.20;;;15.80;99.90;;;;;;5093530;28;20028;-65
2022/06/29 03:39:10;;;;;;;7.18;3.10;;;15.80;99.90;;;;;;5093907;28;20474;-65
2022/06/29 03:41:36;;;;;;;3.50;3.13;;;15.70;99.90;;;;;;5093613;28;20028;-65
2022/06/29 03:44:01;;;;;;;2.83;2.63;;;15.60;99.90;;;;;;5093818;28;20032;-65
2022/06/29 03:46:27;;;;;;;4.22;3.22;;;15.60;99.90;;;;;;5092293;28;20032;-65
2022/06/29 03:48:53;;;;;;;4.20;3.35;;;15.50;99.90;;;;;;5093504;28;20020;-65
2022/06/29 03:51:18;;;;;;;6.38;3.63;;;15.50;99.90;;;;;;5093754;28;20032;-65
2022/06/29 03:53:44;;;;;;;4.10;3.00;;;15.50;99.90;;;;;;5093553;28;20032;-65
2022/06/29 03:56:09;;;;;;;2.83;2.55;;;15.50;99.90;;;;;;5093544;28;20024;-65
2022/06/29 03:58:35;;;;;;;3.15;2.83;;;15.50;99.90;;;;;;5093665;28;20032;-65
2022/06/29 04:01:01;;;;;;;3.67;2.63;;;15.50;99.90;;;;;;5093634;28;20024;-65
2022/06/29 04:03:26;;;;;;;3.55;3.03;;;15.40;99.90;;;;;;5093568;28;20024;-65
2022/06/29 04:05:52;;;;;;;5.75;3.08;;;15.30;99.90;;;;;;5093093;28;20134;-65
2022/06/29 04:08:18;;;;;;;3.65;2.70;;;15.30;99.90;;;;;;5093214;28;20024;-65
2022/06/29 04:10:43;;;;;;;4.50;3.22;;;15.20;99.90;;;;;;5093519;28;20074;-65
2022/06/29 04:13:09;;;;;;;3.95;3.00;;;15.20;99.90;;;;;;5093341;28;20043;-65
2022/06/29 04:15:35;;;;;;;4.03;3.13;;;15.10;99.90;;;;;;5093505;28;20028;-65
2022/06/29 04:18:01;;;;;;;4.95;3.35;;;15.10;99.90;;;;;;5093419;28;20024;-65
2022/06/29 04:23:12;;;;;;;5.88;3.47;;;15.30;99.90;;;;;;5092905;28;20028;-65
2022/06/29 04:25:38;;;;;;;4.72;3.20;;;15.40;99.90;;;;;;5093282;28;20035;-65
2022/06/29 04:28:06;;;;;;;3.92;3.55;;;15.50;99.90;;;;;;5091825;28;20025;-65
2022/06/29 04:30:32;;;;;;;3.83;3.05;;;15.70;99.90;;;;;;5093087;28;20093;-65
2022/06/29 04:32:57;;;;;;;3.97;3.20;;;15.80;99.90;;;;;;5093049;28;20055;-65
2022/06/29 04:35:23;;;;;;;3.55;3.10;;;16.00;99.90;;;;;;5093068;28;20032;-65
2022/06/29 04:37:49;;;;;;;4.82;3.70;;;16.30;99.90;;;;;;5093214;28;20020;-65
2022/06/29 04:40:14;;;;;;;6.53;3.58;;;16.60;99.90;;;;;;5093093;28;20103;-65
2022/06/29 04:42:40;;;;;;;4.10;3.45;;;16.90;99.90;;;;;;5093192;28;20441;-65
2022/06/29 04:45:06;;;;;;;5.15;3.70;;;17.20;99.90;;;;;;5093069;28;20028;-65
2022/06/29 04:47:32;;;;;;;6.85;3.35;;;17.60;99.90;;;;;;5093095;28;20027;-65
2022/06/29 04:49:57;;;;;;;5.93;3.05;;;18.20;99.90;;;;;;5096801;28;20470;-66
2022/06/29 04:52:24;;;;;;;3.45;2.97;;;18.80;99.90;;;;;;5096860;28;20124;-66
2022/06/29 04:54:50;;;;;;;3.28;2.92;;;20.10;99.90;;;;;;5097002;28;20029;-66
2022/06/29 04:57:16;;;;;;;4.43;3.10;;;21.80;99.90;;;;;;5096750;28;20084;-66
2022/06/29 04:59:42;;;;;;;3.10;2.60;;;;;;;;;;5097077;28;20390;-66
2022/06/29 05:02:08;;;;;;;3.38;2.80;;;23.50;99.90;;;;;;5096560;28;20490;-66
2022/06/29 05:04:33;;;;;;;6.10;2.70;;;23.90;99.90;;;;;;5096188;28;20071;-66
2022/06/29 05:06:59;;;;;;;4.97;2.67;;;24.00;99.90;;;;;;5096314;28;20119;-67
2022/06/29 05:09:24;;;;;;;4.13;2.83;;;23.80;99.90;;;;;;5096514;28;20028;-66
2022/06/29 05:11:50;;;;;;;5.47;2.80;;;24.30;99.20;;;;;;5095406;28;20024;-66
2022/06/29 05:14:16;;;;;;;3.33;2.53;;;24.60;98.70;;;;;;5096639;28;20107;-66
2022/06/29 05:16:41;;;;;;;5.47;2.47;;;25.70;95.90;;;;;;5096341;28;20543;-67
2022/06/29 05:19:07;;;;;;;2.72;2.40;;;25.90;94.40;;;;;;5096448;28;20028;-66
2022/06/29 05:21:33;;;;;;;7.13;2.42;;;26.70;91.80;;;;;;5096486;28;20021;-66
2022/06/29 05:23:58;;;;;;;4.35;1.98;;;26.40;91.10;;;;;;5096419;28;20048;-66
2022/06/29 05:26:24;;;;;;;6.38;2.25;;;27.00;88.90;;;;;;5096292;28;20023;-67
2022/06/29 05:28:51;;;;;;;4.03;2.13;;;27.40;88.00;;;;;;5096344;28;20107;-67
2022/06/29 05:31:18;;;;;;;2.40;2.03;;;27.80;82.50;;;;;;5096125;28;20023;-66
2022/06/29 05:33:44;;;;;;;4.20;2.10;;;27.80;81.30;;;;;;5094713;28;20122;-67
2022/06/29 05:36:10;;;;;;;5.32;2.00;;;28.10;79.00;;;;;;5096393;28;20442;-67
2022/06/29 05:38:37;;;;;;;5.85;2.35;;;27.60;78.80;;;;;;5096205;28;20052;-67
2022/06/29 05:41:03;;;;;;;3.72;2.15;;;26.80;78.80;;;;;;5095902;28;20531;-66
2022/06/29 05:43:30;;;;;;;5.20;2.53;;;25.50;83.80;;;;;;5094928;28;20517;-66
2022/06/29 05:45:56;;;;;;;3.58;1.98;;;24.40;88.90;;;;;;5090512;28;20024;-66
2022/06/29 05:48:22;;;;;;;3.42;1.92;;;24.90;89.80;;;;;;5092706;28;20024;-66
2022/06/29 05:50:48;;;;;;;5.75;2.10;;;25.10;88.50;;;;;;5095408;28;20020;-66
2022/06/29 05:53:14;;;;;;;5.20;2.20;;;26.10;84.30;;;;;;5095345;28;20092;-66
2022/06/29 05:55:40;;;;;;;6.15;2.47;;;27.00;80.30;;;;;;5088143;28;20032;-67
2022/06/29 05:58:06;;;;;;;5.45;2.38;;;27.20;80.40;;;;;;5088857;28;20398;-66
2022/06/29 06:00:32;;;;;;;4.40;2.50;;;28.40;76.90;;;;;;5088457;28;20032;-66
2022/06/29 06:02:57;;;;;;;4.03;2.20;;;28.20;75.90;;;;;;5095476;28;20032;-67
2022/06/29 06:05:23;;;;;;;9.43;2.05;;;28.50;75.00;;;;;;5093327;28;20056;-67
2022/06/29 06:07:49;;;;;;;3.88;2.10;;;28.60;72.70;;;;;;5093032;28;20383;-67
2022/06/29 06:10:14;;;;;;;2.92;2.05;;;28.80;73.20;;;;;;5095110;28;20020;-67
2022/06/29 06:12:40;;;;;;;3.40;2.10;;;29.00;72.30;;;;;;5091888;28;20085;-68
2022/06/29 06:15:07;;;;;;;5.22;1.98;;;29.40;69.70;;;;;;5094817;28;20028;-67
2022/06/29 06:17:33;;;;;;;4.60;1.77;;;28.70;68.70;;;;;;5093809;28;20048;-67
2022/06/29 06:19:59;;;;;;;4.72;1.65;;;28.90;70.20;;;;;;5098814;28;20067;-67
2022/06/29 06:22:27;;;;;;;3.40;1.73;;;29.60;68.30;;;;;;5086483;28;20028;-67
2022/06/29 06:24:53;;;;;;;6.28;1.80;;;29.90;66.00;;;;;;5093508;28;20020;-67
2022/06/29 06:27:18;;;;;;;3.45;1.75;;;29.90;65.60;;;;;;5094692;28;20020;-67
2022/06/29 06:29:45;;;;;;;3.58;1.58;;;29.40;66.40;;;;;;5085576;28;20020;-67
2022/06/29 06:32:11;;;;;;;2.58;1.50;;;28.70;69.20;;;;;;5092029;28;20496;-67
2022/06/29 06:34:37;;;;;;;4.25;1.70;;;27.40;70.10;;;;;;5102467;28;20099;-67
2022/06/29 06:37:03;;;;;;;2.90;1.63;;;26.40;75.90;;;;;;5093996;28;20020;-66
2022/06/29 06:39:29;;;;;;;3.00;1.55;;;25.70;77.10;;;;;;5096451;28;20028;-67
2022/06/29 06:41:54;;;;;;;4.15;1.92;;;25.30;76.60;;;;;;5103496;28;20039;-67
2022/06/29 06:44:20;;;;;;;5.57;2.20;;;24.90;77.10;;;;;;5099446;28;20028;-66
2022/06/29 06:46:48;;;;;;;4.43;2.05;;;24.80;79.90;;;;;;5096158;28;20043;-66
2022/06/29 06:49:15;;;;;;;2.47;1.63;;;25.30;79.30;;;;;;5094483;28;20016;-66
2022/06/29 06:51:41;;;;;;;4.70;2.20;;;25.30;80.10;;;;;;5094249;28;20024;-66
2022/06/29 06:54:06;;;;;;;6.07;1.90;;;25.00;81.80;;;;;;5107832;28;20042;-66
2022/06/29 06:56:32;;;;;;;5.45;2.00;;;25.00;81.50;;;;;;5098397;28;20020;-66
2022/06/29 06:58:57;;;;;;;3.28;1.90;;;25.10;81.50;;;;;;5107849;28;20028;-66
2022/06/29 07:01:23;;;;;;;2.50;2.08;;;24.80;83.10;;;;;;5094465;28;20032;-66
2022/06/29 07:03:49;;;;;;;2.30;1.95;;;25.40;81.10;;;;;;5091371;28;20036;-66
2022/06/29 07:06:15;;;;;;;4.38;2.13;;;25.90;78.10;;;;;;5099273;28;20043;-66
2022/06/29 07:08:41;;;;;;;4.88;2.25;;;26.10;75.80;;;;;;5099386;28;20525;-65
2022/06/29 07:11:07;;;;;;;4.40;2.50;;;25.70;77.50;;;;;;5100443;28;20399;-65
2022/06/29 07:13:33;;;;;;;3.45;1.98;;;25.50;78.20;;;;;;5095632;28;20161;-66
2022/06/29 07:16:02;;;;;;;4.18;2.00;;;25.40;80.80;;;;;;5090146;28;20039;-65
2022/06/29 07:18:28;;;;;;;3.55;2.13;;;25.00;79.10;;;;;;5091055;28;20032;-65
2022/06/29 07:20:53;;;;;;;7.97;2.35;;;24.70;80.70;;;;;;5092017;28;20034;-64
2022/06/29 07:23:20;;;;;;;4.00;2.40;;;24.50;82.30;;;;;;5093440;28;20061;-65
2022/06/29 07:25:46;;;;;;;4.10;2.58;;;24.60;81.70;;;;;;5092150;28;20522;-65
2022/06/29 07:28:12;;;;;;;4.25;2.40;;;24.70;81.70;;;;;;5093988;28;20170;-65
2022/06/29 07:30:38;;;;;;;5.82;2.40;;;24.50;83.90;;;;;;5092355;28;20481;-65
2022/06/29 07:33:04;;;;;;;7.32;2.25;;;24.40;85.00;;;;;;5090178;28;20065;-64
2022/06/29 07:35:29;;;;;;;6.20;2.55;;;24.60;85.50;;;;;;5090860;28;20032;-65
2022/06/29 07:37:55;;;;;;;8.18;2.30;;;24.80;84.60;;;;;;5107559;28;20477;-65
2022/06/29 07:40:22;;;;;;;7.20;2.22;;;24.80;84.10;;;;;;5099996;28;20103;-65
2022/06/29 07:42:48;;;;;;;5.80;2.20;;;25.10;84.40;;;;;;5093864;28;20026;-65
2022/06/29 07:45:14;;;;;;;5.65;2.45;;;25.10;86.70;;;;;;5093638;28;20032;-64
2022/06/29 07:47:41;;;;;;;4.43;2.00;;;24.70;85.10;;;;;;5094750;28;20012;-64
2022/06/29 07:50:08;;;;;;;4.63;2.22;;;24.70;89.60;;;;;;5102170;28;20028;-65
2022/06/29 07:52:34;;;;;;;5.45;2.22;;;24.60;88.10;;;;;;5092559;28;20466;-65
2022/06/29 07:55:00;;;;;;;4.95;2.25;;;24.30;88.10;;;;;;5095436;28;20114;-65
2022/06/29 07:57:26;;;;;;;3.95;2.40;;;24.10;89.50;;;;;;5097430;28;20444;-65
2022/06/29 07:59:51;;;;;;;6.38;2.53;;;23.90;90.40;;;;;;5091067;28;20024;-65
2022/06/29 08:02:17;;;;;;;2.75;2.10;;;23.90;91.50;;;;;;5091841;28;20032;-65
2022/06/29 08:04:43;;;;;;;5.47;2.28;;;24.00;91.60;;;;;;5092415;28;20055;-66
2022/06/29 08:07:09;;;;;;;6.15;2.53;;;23.70;92.10;;;;;;5096861;28;20024;-65
2022/06/29 08:09:35;;;;;;;3.63;2.30;;;23.90;93.40;;;;;;5110223;28;20533;-64
2022/06/29 08:12:01;;;;;;;3.42;2.40;;;24.00;92.80;;;;;;5092938;28;20027;-64
2022/06/29 08:14:26;;;;;;;4.35;3.13;;;24.10;91.70;;;;;;5096055;28;20020;-64
2022/06/29 08:16:52;;;;;;;9.85;2.80;;;23.90;92.10;;;;;;5092814;28;20488;-65
2022/06/29 08:19:17;;;;;;;4.38;2.70;;;23.90;92.50;;;;;;5090640;28;20496;-64
2022/06/29 08:21:43;;;;;;;4.35;2.70;;;23.80;92.50;;;;;;5092079;28;20035;-65
2022/06/29 08:24:08;;;;;;;3.80;2.67;;;23.90;93.60;;;;;;5094980;28;20032;-65
2022/06/29 08:26:34;;;;;;;4.50;2.63;;;24.00;94.10;;;;;;5109749;28;20077;-64
2022/06/29 08:28:59;;;;;;;6.28;2.80;;;23.90;92.80;;;;;;5092182;28;20028;-66
2022/06/29 08:31:25;;;;;;;8.43;3.10;;;23.80;93.40;;;;;;5091308;28;20106;-65
2022/06/29 08:33:51;;;;;;;4.20;2.60;;;23.80;93.40;;;;;;5088395;28;20020;-65
2022/06/29 08:36:16;;;;;;;3.88;2.80;;;23.70;93.40;;;;;;5093750;28;20470;-64
2022/06/29 08:38:42;;;;;;;3.85;2.67;;;23.60;94.30;;;;;;5096048;28;20056;-66
2022/06/29 08:41:10;;;;;;;6.93;3.20;;;23.60;94.30;;;;;;5107987;28;20042;-65
2022/06/29 08:43:36;;;;;;;7.07;3.13;;;23.50;94.60;;;;;;5110430;28;20026;-65
2022/06/29 08:46:02;;;;;;;5.75;3.30;;;23.40;94.70;;;;;;5106676;28;20035;-69
2022/06/29 08:48:30;;;;;;;4.57;3.13;;;23.40;94.60;;;;;;5112880;28;20059;-70
2022/06/29 08:50:56;;;;;;;4.30;2.90;;;23.50;94.90;;;;;;5099587;28;20031;-70
2022/06/29 08:53:23;;;;;;;6.93;3.17;;;23.40;95.10;;;;;;5095542;28;20465;-70
2022/06/29 08:55:51;;;;;;;7.75;3.22;;;23.50;95.20;;;;;;5095810;28;20051;-70
2022/06/29 08:58:20;;;;;;;4.05;3.15;;;23.50;95.30;;;;;;5097681;28;20043;-69
2022/06/29 09:00:46;;;;;;;4.07;3.42;;;23.60;95.20;;;;;;5121881;27;20042;-69
2022/06/29 09:03:15;;;;;;;6.82;3.05;;;23.50;95.30;;;;;;5101602;28;20020;-70
2022/06/29 09:05:45;;;;;;;4.63;3.30;;;23.50;96.00;;;;;;5093906;28;20127;-69
2022/06/29 09:08:11;;;;;;;4.53;3.10;;;23.50;97.00;;;;;;5097576;28;20016;-70
2022/06/29 09:10:36;;;;;;;6.10;2.92;;;23.50;96.30;;;;;;5093579;28;20389;-70
2022/06/29 09:13:04;;;;;;;6.63;3.58;;;23.50;97.20;;;;;;5094729;28;20490;-69
2022/06/29 09:15:33;;;;;;;5.03;3.20;;;23.30;97.30;;;;;;5095868;28;20103;-69
2022/06/29 09:18:01;;;;;;;8.45;3.38;;;23.40;97.10;;;;;;5083372;28;20115;-70
2022/06/29 09:20:42;;;;;;;9.68;3.28;;;23.50;97.30;;;;;;5099019;28;20451;-70
2022/06/29 09:23:09;;;;;;;5.88;3.38;;;23.70;97.20;;;;;;5087039;28;20067;-70
2022/06/29 09:25:39;;;;;;;4.72;2.83;;;23.90;97.10;;;;;;5090822;28;20573;-69
2022/06/29 09:28:19;;;;;;;5.53;3.05;;;24.00;96.70;;;;;;5095062;28;20061;-70
2022/06/29 09:30:46;;;;;;;6.53;3.42;;;24.00;97.20;;;;;;5094182;28;20095;-70
2022/06/29 09:33:11;;;;;;;5.53;3.28;;;24.00;96.70;;;;;;5093134;28;20067;-69
2022/06/29 09:35:39;;;;;;;4.65;3.15;;;24.00;97.40;;;;;;5093208;28;20036;-69
2022/06/29 09:38:22;;;;;;;6.30;3.42;;;24.10;97.50;;;;;;5076884;28;20065;-69
2022/06/29 09:41:10;;;;;;;6.13;3.47;;;24.10;97.10;;;;;;5086249;28;20099;-70
2022/06/29 09:43:39;;;;;;;8.18;3.97;;;24.20;96.90;;;;;;5090103;28;20035;-69
2022/06/29 09:46:07;;;;;;;6.45;3.75;;;24.20;98.40;;;;;;5101787;28;20145;-69
2022/06/29 09:48:35;;;;;;;8.60;3.30;;;24.30;96.80;;;;;;5092185;28;20069;-69
2022/06/29 09:51:01;;;;;;;7.38;3.35;;;24.50;96.30;;;;;;5093215;28;20466;-70
2022/06/29 09:53:37;;;;;;;6.32;3.30;;;24.70;96.00;;;;;;5083993;28;20102;-70
2022/06/29 09:56:05;;;;;;;5.18;3.47;;;24.80;95.80;;;;;;5076484;28;20032;-70
2022/06/29 09:58:41;;;;;;;7.57;3.38;;;24.80;96.00;;;;;;5094502;28;20043;-69
2022/06/29 10:03:55;;;;;;;5.72;4.18;;;24.50;95.80;;;;;;5091999;28;20020;-70
2022/06/29 10:06:22;;;;;;;9.40;3.88;;;24.40;96.30;;;;;;5085117;28;20043;-69
2022/06/29 10:08:48;;;;;;;4.88;3.70;;;24.40;96.10;;;;;;5094447;28;20432;-69
2022/06/29 10:14:38;;;;;;;5.97;3.70;;;24.60;96.20;;;;;;5091308;28;20119;-69
2022/06/29 10:17:28;;;;;;;7.00;3.55;;;24.40;96.90;;;;;;5095458;28;20020;-69
2022/06/29 10:20:07;;;;;;;4.47;3.78;;;24.40;97.80;;;;;;5090291;28;20020;-69
2022/06/29 10:22:33;;;;;;;8.38;3.92;;;24.20;97.90;;;;;;5093714;28;20016;-69
2022/06/29 10:25:03;;;;;;;4.82;3.80;;;24.30;98.70;;;;;;5090745;28;20028;-69
2022/06/29 10:27:29;;;;;;;7.05;3.80;;;24.10;98.80;;;;;;5089635;28;20081;-69
2022/06/29 10:30:23;;;;;;;5.28;3.80;;;24.20;98.80;;;;;;5089208;28;20024;-69
2022/06/29 10:32:50;;;;;;;10.15;3.63;;;24.40;99.60;;;;;;5088366;28;20055;-71
2022/06/29 10:35:16;;;;;;;5.82;3.38;;;24.50;97.80;;;;;;5093400;28;20070;-69
2022/06/29 10:37:51;;;;;;;9.50;4.18;;;24.70;98.70;;;;;;5087343;28;20463;-69
2022/06/29 10:40:18;;;;;;;8.13;4.18;;;24.90;97.30;;;;;;5096757;28;20034;-70
2022/06/29 10:43:17;;;;;;;8.68;4.00;;;24.90;96.80;;;;;;5093104;28;20554;-71
2022/06/29 10:45:36;;;;;;;6.63;4.32;;;25.10;96.80;;;;;;5092061;28;20032;-71
2022/06/29 10:48:07;;;;;;;7.60;4.00;;;25.10;96.50;;;;;;5076527;28;20028;-70
2022/06/29 10:50:35;;;;;;;7.30;4.15;;;25.20;96.40;;;;;;5102148;28;20052;-70
2022/06/29 10:53:05;;;;;;;7.75;4.13;;;25.00;96.90;;;;;;5093992;28;20024;-70
2022/06/29 10:55:33;;;;;;;5.95;4.13;;;24.80;97.70;;;;;;5099399;28;20421;-70
2022/06/29 10:58:01;;;;;;;9.15;4.20;;;24.80;98.10;;;;;;5092180;28;20031;-70
2022/06/29 11:00:45;;;;;;;7.97;4.13;;;24.80;98.20;;;;;;5088870;28;20028;-70
2022/06/29 11:03:15;;;;;;;9.05;4.10;;;24.80;98.80;;;;;;5102978;28;20058;-70
2022/06/29 11:14:04;;;;;;;10.98;4.82;;;24.50;99.30;;;;;;5092937;28;20385;-70
2022/06/29 11:16:33;;;;;;;7.30;4.50;;;24.40;99.20;;;;;;5077134;28;20481;-70
2022/06/29 11:18:59;;;;;;;7.15;4.93;;;24.40;99.80;;;;;;5093579;28;20073;-70
2022/06/29 11:21:25;;;;;;;6.20;5.05;;;24.40;99.90;;;;;;5090771;28;20416;-70
2022/06/29 11:24:06;;;;;;;6.00;4.90;;;24.30;99.50;;;;;;5096074;28;20442;-70
2022/06/29 11:26:33;;;;;;;8.13;4.80;;;24.40;99.50;;;;;;5083531;28;20036;-70
2022/06/29 11:29:00;;;;;;;5.40;4.90;;;24.50;99.20;;;;;;5072805;28;20032;-70
2022/06/29 11:31:26;;;;;;;14.27;5.10;;;24.60;99.60;;;;;;5085160;28;20142;-69
2022/06/29 11:33:53;;;;;;;7.43;4.40;;;24.80;99.80;;;;;;5092352;28;20525;-70
2022/06/29 11:36:21;;;;;;;6.97;4.80;;;24.90;99.80;;;;;;5092545;28;20039;-70
2022/06/29 11:38:50;;;;;;;8.85;4.90;;;24.90;99.50;;;;;;5087660;28;20080;-70
2022/06/29 11:41:20;;;;;;;6.40;4.63;;;25.00;99.40;;;;;;5091662;28;20020;-70
2022/06/29 11:43:58;;;;;;;6.47;5.00;;;25.10;99.60;;;;;;5090409;28;20474;-70
2022/06/29 11:46:25;;;;;;;8.48;5.05;;;25.20;99.90;;;;;;5093366;28;20032;-71
2022/06/29 11:51:52;;;;;;;5.65;4.68;;;25.30;99.80;;;;;;5090142;28;20027;-70
2022/06/29 11:54:18;;;;;;;8.70;5.03;;;25.60;99.10;;;;;;5091267;28;20069;-70
2022/06/29 11:56:45;;;;;;;7.82;5.90;;;25.80;98.10;;;;;;5091321;28;20491;-70
2022/06/29 11:59:16;;;;;;;8.07;5.95;;;25.90;96.90;;;;;;5092536;28;20020;-71
2022/06/29 12:01:52;;;;;;;8.23;6.05;;;25.70;96.80;;;;;;5090627;28;20028;-70
2022/06/29 12:04:27;;;;;;;12.90;6.60;;;25.40;98.10;;;;;;5091045;28;20118;-70
2022/06/29 12:07:02;;;;;;;6.32;5.68;;;25.50;98.90;;;;;;5090415;28;20047;-70
2022/06/29 12:09:28;;;;;;;6.10;5.60;;;25.60;99.20;;;;;;5091815;28;20046;-70
2022/06/29 12:11:53;;;;;;;6.88;5.80;;;25.60;99.90;;;;;;5072615;28;20020;-70
2022/06/29 12:14:19;;;;;;;7.93;5.88;;;25.40;99.90;;;;;;5091816;28;20106;-70
2022/06/29 12:16:44;;;;;;;7.07;5.85;;;25.50;99.80;;;;;;5092235;28;20111;-71
2022/06/29 12:19:10;;;;;;;6.28;5.68;;;25.60;99.90;;;;;;5092073;28;20028;-71
2022/06/29 12:21:36;;;;;;;9.45;6.00;;;25.40;99.90;;;;;;5091389;28;20036;-71
2022/06/29 12:24:01;;;;;;;9.13;5.85;;;25.40;99.90;;;;;;5091196;28;20024;-71
2022/06/29 12:26:27;;;;;;;14.50;10.05;;;25.50;99.90;;;;;;5089735;28;20416;-70
2022/06/29 12:28:53;;;;;;;9.90;6.50;;;25.80;99.90;;;;;;5073935;28;20024;-70
2022/06/29 12:31:19;;;;;;;10.00;7.38;;;26.10;99.90;;;;;;5092130;28;20016;-71
2022/06/29 12:33:44;;;;;;;7.95;7.15;;;26.30;99.50;;;;;;5073812;28;20043;-70
2022/06/29 12:36:10;;;;;;;11.18;7.85;;;26.50;99.40;;;;;;5090617;28;20382;-70
2022/06/29 12:38:36;;;;;;;12.13;8.38;;;26.40;99.30;;;;;;5090847;28;20028;-70
2022/06/29 12:41:01;;;;;;;8.68;7.15;;;26.50;98.70;;;;;;5090236;28;20028;-70
2022/06/29 12:43:27;;;;;;;8.48;7.60;;;26.70;99.70;;;;;;5074503;28;20024;-70
2022/06/29 12:45:52;;;;;;;7.70;7.00;;;26.90;98.90;;;;;;5088174;28;20056;-70
2022/06/29 12:48:18;;;;;;;8.05;7.30;;;26.80;99.70;;;;;;5071661;28;20040;-70
2022/06/29 12:50:44;;;;;;;10.68;8.38;;;27.00;99.80;;;;;;5073791;28;20017;-70
2022/06/29 12:53:09;;;;;;;9.25;8.25;;;27.00;98.70;;;;;;5092670;28;20469;-70
2022/06/29 12:55:35;;;;;;;8.50;7.70;;;26.80;99.10;;;;;;5091646;28;20054;-70
2022/06/29 12:58:01;;;;;;;9.52;8.52;;;26.80;99.90;;;;;;5087490;28;20040;-70
2022/06/29 13:00:28;;;;;;;8.82;8.10;;;26.90;99.20;;;;;;5091536;28;20028;-70
2022/06/29 13:02:55;;;;;;;9.52;8.70;;;26.70;99.40;;;;;;5090457;28;20039;-70
2022/06/29 13:05:21;;;;;;;9.63;8.52;;;26.30;99.90;;;;;;5091380;28;20048;-70
2022/06/29 13:07:46;;;;;;;9.10;8.30;;;26.30;99.90;;;;;;5070576;28;20028;-69
2022/06/29 13:10:12;;;;;;;11.38;8.48;;;26.00;99.90;;;;;;5084785;28;20103;-70
2022/06/29 13:12:38;;;;;;;9.23;8.32;;;26.20;99.90;;;;;;5092102;28;20024;-69